Ennis, Ireland
Current Conditions -  °F | °C
As of 2:30 PM on Saturday 25 Oct 2014 (Local Time) from EINN Reporting Station
Broken Clouds Broken Clouds  
Wind Chill: 55°   Ceiling: 5000
Heat Index: 55°   Visibility: 6mi
Dew Point: 43°   Wind: 21mph
Humidity: 63%   Direction: 220°SW
Pressure: 29.88"   Gusts: NA
Location:  52.86°N, 8.99°W
Report Text: EINN 251430Z 22018KT 9999 FEW016 BKN050 13/06 Q1012 NOSIG
Loading
Personal Weather Stations






























Interactive Weather Map
Tropical Storm Tracking
New forecast layout! Learn more

10-Day Weather Forecast

Advertisements
Track Severe Weather on mobile